Terminal Aerodrome Forecast
Issued by NWS Nashville, TN

Home | Current Version | Previous Version | Text Only | Print | Product List | Glossary On
Versions: 1 2 3 4 5 6 7 8 9 10 11 12 13 14 15 16 17 18 19 20 21 22 23 24 25 26 27 28 29 30
000
FTUS44 KOHX 271700
TAFCSV
TAF
KCSV 271720Z 2718/2818 36004KT P6SM SCT035
     FM280500 00000KT 4SM BR SCT250
      TEMPO 2808/2812 1SM BR=

USA.gov is the U.S. government's official web portal to all federal, state and local government web resources and services.